Smithville, Arkansas
Current Conditions -  °F | °C
As of 7:15 AM on Wednesday 22 Oct 2014 (Local Time) from KARG Reporting Station
Clear Clear  
Wind Chill: 43°   Ceiling: Unl
Heat Index: 46°   Visibility: 8mi
Dew Point: 37°   Wind: 7mph
Humidity: 71%   Direction: 20°NNE
Pressure: 30.25"   Gusts: NA
Location:  36.08°N, 91.3°W
Report Text: KARG 221215Z AUTO 02006KT 8SM CLR 08/03 A3025 RMK AO1
Loading
Personal Weather Stations






























Interactive Weather Map New forecast layout! Learn more

10-Day Weather Forecast

Advertisements
Track Severe Weather on mobile